sensor_id;sensor_type;location;lat;lon;timestamp;P1;durP1;ratioP1;P2;durP2;ratioP2
67602;SDS011;54417;47.454;18.918;2023-03-23T00:01:01;9.93;;;7.70;;
67602;SDS011;54417;47.454;18.918;2023-03-23T00:06:25;13.65;;;7.65;;
67602;SDS011;54417;47.454;18.918;2023-03-23T00:11:50;23.45;;;8.57;;
67602;SDS011;54417;47.454;18.918;2023-03-23T00:17:18;19.80;;;8.02;;
67602;SDS011;54417;47.454;18.918;2023-03-23T00:22:41;13.27;;;7.55;;
67602;SDS011;54417;47.454;18.918;2023-03-23T00:28:05;18.27;;;8.00;;
67602;SDS011;54417;47.454;18.918;2023-03-23T00:33:29;11.38;;;7.35;;
67602;SDS011;54417;47.454;18.918;2023-03-23T00:38:58;12.63;;;8.20;;
67602;SDS011;54417;47.454;18.918;2023-03-23T00:44:23;11.65;;;7.72;;
67602;SDS011;54417;47.454;18.918;2023-03-23T00:49:46;13.13;;;8.02;;
67602;SDS011;54417;47.454;18.918;2023-03-23T00:55:09;14.40;;;8.50;;
67602;SDS011;54417;47.454;18.918;2023-03-23T01:00:33;12.05;;;6.85;;
67602;SDS011;54417;47.454;18.918;2023-03-23T01:05:57;16.52;;;6.60;;
67602;SDS011;54417;47.454;18.918;2023-03-23T01:11:20;16.15;;;7.70;;
67602;SDS011;54417;47.454;18.918;2023-03-23T01:16:44;16.85;;;7.75;;
67602;SDS011;54417;47.454;18.918;2023-03-23T01:22:07;16.77;;;8.93;;
67602;SDS011;54417;47.454;18.918;2023-03-23T01:27:29;11.65;;;7.43;;
67602;SDS011;54417;47.454;18.918;2023-03-23T01:32:54;13.43;;;7.10;;
67602;SDS011;54417;47.454;18.918;2023-03-23T01:38:17;12.30;;;6.93;;
67602;SDS011;54417;47.454;18.918;2023-03-23T01:43:53;14.32;;;7.07;;
67602;SDS011;54417;47.454;18.918;2023-03-23T01:49:21;15.98;;;7.72;;
67602;SDS011;54417;47.454;18.918;2023-03-23T01:54:47;12.55;;;6.22;;
67602;SDS011;54417;47.454;18.918;2023-03-23T02:00:12;9.15;;;5.90;;
67602;SDS011;54417;47.454;18.918;2023-03-23T02:05:42;11.05;;;6.90;;
67602;SDS011;54417;47.454;18.918;2023-03-23T02:11:13;16.20;;;7.65;;
67602;SDS011;54417;47.454;18.918;2023-03-23T02:16:39;11.63;;;6.82;;
67602;SDS011;54417;47.454;18.918;2023-03-23T02:28:05;10.68;;;5.78;;
67602;SDS011;54417;47.454;18.918;2023-03-23T02:33:51;12.00;;;6.53;;
67602;SDS011;54417;47.454;18.918;2023-03-23T02:39:18;12.00;;;6.10;;
67602;SDS011;54417;47.454;18.918;2023-03-23T02:44:44;13.05;;;6.53;;
67602;SDS011;54417;47.454;18.918;2023-03-23T02:50:11;11.95;;;7.03;;
67602;SDS011;54417;47.454;18.918;2023-03-23T02:55:38;14.18;;;6.65;;
67602;SDS011;54417;47.454;18.918;2023-03-23T03:01:16;11.23;;;5.95;;
67602;SDS011;54417;47.454;18.918;2023-03-23T03:07:22;10.90;;;6.75;;
67602;SDS011;54417;47.454;18.918;2023-03-23T03:12:53;11.35;;;6.65;;
67602;SDS011;54417;47.454;18.918;2023-03-23T03:18:21;15.55;;;6.70;;
67602;SDS011;54417;47.454;18.918;2023-03-23T03:23:48;12.13;;;6.20;;
67602;SDS011;54417;47.454;18.918;2023-03-23T03:29:12;11.93;;;6.47;;
67602;SDS011;54417;47.454;18.918;2023-03-23T03:34:40;12.98;;;6.72;;
67602;SDS011;54417;47.454;18.918;2023-03-23T03:40:07;11.18;;;6.60;;
67602;SDS011;54417;47.454;18.918;2023-03-23T03:45:34;11.25;;;6.18;;
67602;SDS011;54417;47.454;18.918;2023-03-23T03:50:57;9.57;;;6.05;;
67602;SDS011;54417;47.454;18.918;2023-03-23T03:56:25;13.57;;;6.85;;
67602;SDS011;54417;47.454;18.918;2023-03-23T04:02:00;13.27;;;6.80;;
67602;SDS011;54417;47.454;18.918;2023-03-23T04:07:23;13.80;;;6.70;;
67602;SDS011;54417;47.454;18.918;2023-03-23T04:12:49;11.07;;;6.55;;
67602;SDS011;54417;47.454;18.918;2023-03-23T04:18:37;12.70;;;6.85;;
67602;SDS011;54417;47.454;18.918;2023-03-23T04:24:01;12.05;;;7.18;;
67602;SDS011;54417;47.454;18.918;2023-03-23T04:29:26;11.82;;;6.72;;
67602;SDS011;54417;47.454;18.918;2023-03-23T04:35:18;12.80;;;7.28;;
67602;SDS011;54417;47.454;18.918;2023-03-23T04:40:50;12.52;;;6.65;;
67602;SDS011;54417;47.454;18.918;2023-03-23T04:46:44;10.32;;;6.28;;
67602;SDS011;54417;47.454;18.918;2023-03-23T04:52:12;10.38;;;5.72;;
67602;SDS011;54417;47.454;18.918;2023-03-23T04:57:38;19.33;;;7.60;;
67602;SDS011;54417;47.454;18.918;2023-03-23T05:03:29;10.88;;;6.72;;
67602;SDS011;54417;47.454;18.918;2023-03-23T05:08:52;16.92;;;6.35;;
67602;SDS011;54417;47.454;18.918;2023-03-23T05:14:17;13.05;;;7.00;;
67602;SDS011;54417;47.454;18.918;2023-03-23T05:19:50;13.30;;;6.60;;
67602;SDS011;54417;47.454;18.918;2023-03-23T05:25:37;11.30;;;6.28;;
67602;SDS011;54417;47.454;18.918;2023-03-23T05:31:09;10.65;;;5.82;;
67602;SDS011;54417;47.454;18.918;2023-03-23T05:36:34;12.50;;;6.72;;
67602;SDS011;54417;47.454;18.918;2023-03-23T05:42:10;12.07;;;6.22;;
67602;SDS011;54417;47.454;18.918;2023-03-23T05:47:54;12.27;;;6.63;;
67602;SDS011;54417;47.454;18.918;2023-03-23T05:53:22;13.18;;;7.25;;
67602;SDS011;54417;47.454;18.918;2023-03-23T05:58:45;13.15;;;7.55;;
67602;SDS011;54417;47.454;18.918;2023-03-23T06:04:09;11.80;;;7.00;;
67602;SDS011;54417;47.454;18.918;2023-03-23T06:09:45;17.30;;;8.23;;
67602;SDS011;54417;47.454;18.918;2023-03-23T06:15:35;16.70;;;9.73;;
67602;SDS011;54417;47.454;18.918;2023-03-23T06:21:10;18.63;;;9.20;;
67602;SDS011;54417;47.454;18.918;2023-03-23T06:27:03;31.50;;;10.35;;
67602;SDS011;54417;47.454;18.918;2023-03-23T06:32:27;24.25;;;11.02;;
67602;SDS011;54417;47.454;18.918;2023-03-23T06:37:52;16.75;;;9.40;;
67602;SDS011;54417;47.454;18.918;2023-03-23T06:43:31;12.73;;;8.93;;
67602;SDS011;54417;47.454;18.918;2023-03-23T06:49:06;14.30;;;9.05;;
67602;SDS011;54417;47.454;18.918;2023-03-23T06:54:37;15.30;;;10.05;;
67602;SDS011;54417;47.454;18.918;2023-03-23T07:00:04;11.65;;;8.13;;
67602;SDS011;54417;47.454;18.918;2023-03-23T07:05:35;18.92;;;9.68;;
67602;SDS011;54417;47.454;18.918;2023-03-23T07:10:59;15.25;;;9.68;;
67602;SDS011;54417;47.454;18.918;2023-03-23T07:16:24;14.85;;;9.05;;
67602;SDS011;54417;47.454;18.918;2023-03-23T07:21:48;15.43;;;8.80;;
67602;SDS011;54417;47.454;18.918;2023-03-23T07:27:13;17.67;;;9.60;;
67602;SDS011;54417;47.454;18.918;2023-03-23T07:32:39;15.02;;;9.63;;
67602;SDS011;54417;47.454;18.918;2023-03-23T07:38:02;13.55;;;8.77;;
67602;SDS011;54417;47.454;18.918;2023-03-23T07:43:26;12.65;;;8.15;;
67602;SDS011;54417;47.454;18.918;2023-03-23T07:49:06;12.63;;;7.70;;
67602;SDS011;54417;47.454;18.918;2023-03-23T07:54:35;12.43;;;7.40;;
67602;SDS011;54417;47.454;18.918;2023-03-23T08:00:03;11.32;;;7.13;;
67602;SDS011;54417;47.454;18.918;2023-03-23T08:05:37;11.80;;;6.25;;
67602;SDS011;54417;47.454;18.918;2023-03-23T08:11:41;12.05;;;5.88;;
67602;SDS011;54417;47.454;18.918;2023-03-23T08:17:42;9.15;;;6.40;;
67602;SDS011;54417;47.454;18.918;2023-03-23T08:23:15;9.10;;;6.70;;
67602;SDS011;54417;47.454;18.918;2023-03-23T08:28:56;16.13;;;7.25;;
67602;SDS011;54417;47.454;18.918;2023-03-23T08:34:31;9.73;;;6.10;;
67602;SDS011;54417;47.454;18.918;2023-03-23T08:40:07;11.55;;;6.15;;
67602;SDS011;54417;47.454;18.918;2023-03-23T08:45:34;18.92;;;8.88;;
67602;SDS011;54417;47.454;18.918;2023-03-23T08:51:13;10.82;;;7.82;;
67602;SDS011;54417;47.454;18.918;2023-03-23T08:57:06;15.50;;;7.70;;
67602;SDS011;54417;47.454;18.918;2023-03-23T09:02:39;10.63;;;7.22;;
67602;SDS011;54417;47.454;18.918;2023-03-23T09:08:15;16.00;;;10.00;;
67602;SDS011;54417;47.454;18.918;2023-03-23T09:13:40;14.43;;;10.20;;
67602;SDS011;54417;47.454;18.918;2023-03-23T09:19:02;18.75;;;9.68;;
67602;SDS011;54417;47.454;18.918;2023-03-23T09:24:25;13.73;;;8.30;;
67602;SDS011;54417;47.454;18.918;2023-03-23T09:29:49;15.52;;;9.32;;
67602;SDS011;54417;47.454;18.918;2023-03-23T09:35:12;11.65;;;7.82;;
67602;SDS011;54417;47.454;18.918;2023-03-23T09:40:37;10.73;;;8.18;;
67602;SDS011;54417;47.454;18.918;2023-03-23T09:46:15;14.32;;;8.80;;
67602;SDS011;54417;47.454;18.918;2023-03-23T09:51:55;14.80;;;7.55;;
67602;SDS011;54417;47.454;18.918;2023-03-23T09:57:22;15.40;;;8.60;;
67602;SDS011;54417;47.454;18.918;2023-03-23T10:02:52;15.35;;;7.50;;
67602;SDS011;54417;47.454;18.918;2023-03-23T10:08:19;16.23;;;8.45;;
67602;SDS011;54417;47.454;18.918;2023-03-23T10:13:58;14.23;;;9.32;;
67602;SDS011;54417;47.454;18.918;2023-03-23T10:19:40;13.25;;;7.40;;
67602;SDS011;54417;47.454;18.918;2023-03-23T10:25:14;9.00;;;5.60;;
67602;SDS011;54417;47.454;18.918;2023-03-23T10:30:39;11.43;;;5.43;;
67602;SDS011;54417;47.454;18.918;2023-03-23T10:36:05;11.07;;;6.82;;
67602;SDS011;54417;47.454;18.918;2023-03-23T10:41:33;8.18;;;5.45;;
67602;SDS011;54417;47.454;18.918;2023-03-23T10:46:58;8.35;;;5.07;;
67602;SDS011;54417;47.454;18.918;2023-03-23T10:52:29;12.65;;;5.65;;
67602;SDS011;54417;47.454;18.918;2023-03-23T10:57:59;7.15;;;4.30;;
67602;SDS011;54417;47.454;18.918;2023-03-23T11:03:35;6.82;;;2.83;;
67602;SDS011;54417;47.454;18.918;2023-03-23T11:09:08;3.28;;;2.22;;
67602;SDS011;54417;47.454;18.918;2023-03-23T11:14:35;2.83;;;1.98;;
67602;SDS011;54417;47.454;18.918;2023-03-23T11:20:09;4.53;;;1.90;;
67602;SDS011;54417;47.454;18.918;2023-03-23T11:25:34;3.45;;;2.00;;
67602;SDS011;54417;47.454;18.918;2023-03-23T11:31:32;1.95;;;1.73;;
67602;SDS011;54417;47.454;18.918;2023-03-23T11:37:03;3.10;;;1.65;;
67602;SDS011;54417;47.454;18.918;2023-03-23T11:42:37;7.68;;;2.00;;
67602;SDS011;54417;47.454;18.918;2023-03-23T11:48:06;7.05;;;2.60;;
67602;SDS011;54417;47.454;18.918;2023-03-23T11:53:39;6.43;;;2.00;;
67602;SDS011;54417;47.454;18.918;2023-03-23T11:59:10;3.70;;;1.67;;
67602;SDS011;54417;47.454;18.918;2023-03-23T12:04:39;1.70;;;1.60;;
67602;SDS011;54417;47.454;18.918;2023-03-23T12:10:14;3.75;;;2.15;;
67602;SDS011;54417;47.454;18.918;2023-03-23T12:15:49;6.18;;;2.17;;
67602;SDS011;54417;47.454;18.918;2023-03-23T12:21:20;2.50;;;1.90;;
67602;SDS011;54417;47.454;18.918;2023-03-23T12:26:50;2.95;;;2.20;;
67602;SDS011;54417;47.454;18.918;2023-03-23T12:32:29;2.42;;;1.58;;
67602;SDS011;54417;47.454;18.918;2023-03-23T12:38:07;3.03;;;1.90;;
67602;SDS011;54417;47.454;18.918;2023-03-23T12:43:39;3.78;;;1.98;;
67602;SDS011;54417;47.454;18.918;2023-03-23T12:49:13;5.93;;;1.67;;
67602;SDS011;54417;47.454;18.918;2023-03-23T12:54:41;4.43;;;1.67;;
67602;SDS011;54417;47.454;18.918;2023-03-23T13:00:14;2.42;;;1.60;;
67602;SDS011;54417;47.454;18.918;2023-03-23T13:05:45;2.80;;;1.77;;
67602;SDS011;54417;47.454;18.918;2023-03-23T13:11:17;1.95;;;1.60;;
67602;SDS011;54417;47.454;18.918;2023-03-23T13:16:45;1.60;;;1.40;;
67602;SDS011;54417;47.454;18.918;2023-03-23T13:27:40;3.58;;;1.70;;
67602;SDS011;54417;47.454;18.918;2023-03-23T13:33:05;4.50;;;1.80;;
67602;SDS011;54417;47.454;18.918;2023-03-23T13:38:35;4.50;;;1.58;;
67602;SDS011;54417;47.454;18.918;2023-03-23T13:44:05;4.97;;;1.75;;
67602;SDS011;54417;47.454;18.918;2023-03-23T13:49:45;4.80;;;1.92;;
67602;SDS011;54417;47.454;18.918;2023-03-23T13:55:20;4.20;;;2.40;;
67602;SDS011;54417;47.454;18.918;2023-03-23T14:06:33;3.50;;;1.77;;
67602;SDS011;54417;47.454;18.918;2023-03-23T14:12:05;5.30;;;1.95;;
67602;SDS011;54417;47.454;18.918;2023-03-23T14:17:40;5.00;;;1.98;;
67602;SDS011;54417;47.454;18.918;2023-03-23T14:23:05;4.85;;;1.90;;
67602;SDS011;54417;47.454;18.918;2023-03-23T14:28:29;4.93;;;1.98;;
67602;SDS011;54417;47.454;18.918;2023-03-23T14:33:52;1.75;;;1.63;;
67602;SDS011;54417;47.454;18.918;2023-03-23T14:39:19;7.45;;;2.92;;
67602;SDS011;54417;47.454;18.918;2023-03-23T14:44:46;3.03;;;1.60;;
67602;SDS011;54417;47.454;18.918;2023-03-23T14:50:25;4.70;;;2.00;;
67602;SDS011;54417;47.454;18.918;2023-03-23T14:55:52;3.73;;;1.97;;
67602;SDS011;54417;47.454;18.918;2023-03-23T15:01:18;3.70;;;2.40;;
67602;SDS011;54417;47.454;18.918;2023-03-23T15:06:43;3.35;;;2.13;;
67602;SDS011;54417;47.454;18.918;2023-03-23T15:12:17;1.55;;;1.45;;
67602;SDS011;54417;47.454;18.918;2023-03-23T15:17:45;4.20;;;1.65;;
67602;SDS011;54417;47.454;18.918;2023-03-23T15:23:13;4.38;;;1.90;;
67602;SDS011;54417;47.454;18.918;2023-03-23T15:28:39;4.03;;;2.07;;
67602;SDS011;54417;47.454;18.918;2023-03-23T15:34:05;4.28;;;2.50;;
67602;SDS011;54417;47.454;18.918;2023-03-23T15:39:28;9.30;;;2.30;;
67602;SDS011;54417;47.454;18.918;2023-03-23T15:44:55;8.82;;;2.95;;
67602;SDS011;54417;47.454;18.918;2023-03-23T15:50:34;4.57;;;2.60;;
67602;SDS011;54417;47.454;18.918;2023-03-23T15:55:58;7.72;;;2.17;;
67602;SDS011;54417;47.454;18.918;2023-03-23T16:01:23;18.80;;;7.47;;
67602;SDS011;54417;47.454;18.918;2023-03-23T16:06:54;8.00;;;4.97;;
67602;SDS011;54417;47.454;18.918;2023-03-23T16:12:20;7.50;;;4.93;;
67602;SDS011;54417;47.454;18.918;2023-03-23T16:17:44;7.72;;;4.45;;
67602;SDS011;54417;47.454;18.918;2023-03-23T16:23:10;19.30;;;8.40;;
67602;SDS011;54417;47.454;18.918;2023-03-23T16:28:33;19.67;;;6.70;;
67602;SDS011;54417;47.454;18.918;2023-03-23T16:33:57;10.55;;;4.60;;
67602;SDS011;54417;47.454;18.918;2023-03-23T16:39:22;11.35;;;5.70;;
67602;SDS011;54417;47.454;18.918;2023-03-23T16:44:46;7.00;;;4.50;;
67602;SDS011;54417;47.454;18.918;2023-03-23T16:50:12;8.25;;;4.57;;
67602;SDS011;54417;47.454;18.918;2023-03-23T16:55:39;11.52;;;4.57;;
67602;SDS011;54417;47.454;18.918;2023-03-23T17:01:05;13.63;;;4.22;;
67602;SDS011;54417;47.454;18.918;2023-03-23T17:06:29;10.77;;;4.75;;
67602;SDS011;54417;47.454;18.918;2023-03-23T17:11:54;13.18;;;4.45;;
67602;SDS011;54417;47.454;18.918;2023-03-23T17:17:18;17.08;;;4.20;;
67602;SDS011;54417;47.454;18.918;2023-03-23T17:22:42;18.20;;;4.10;;
67602;SDS011;54417;47.454;18.918;2023-03-23T17:28:07;6.97;;;3.13;;
67602;SDS011;54417;47.454;18.918;2023-03-23T17:33:31;14.55;;;3.90;;
67602;SDS011;54417;47.454;18.918;2023-03-23T17:38:55;10.20;;;5.22;;
67602;SDS011;54417;47.454;18.918;2023-03-23T17:44:20;13.98;;;6.63;;
67602;SDS011;54417;47.454;18.918;2023-03-23T17:49:44;12.10;;;6.32;;
67602;SDS011;54417;47.454;18.918;2023-03-23T17:55:07;13.70;;;6.30;;
67602;SDS011;54417;47.454;18.918;2023-03-23T18:00:33;8.80;;;5.32;;
67602;SDS011;54417;47.454;18.918;2023-03-23T18:05:57;9.48;;;4.55;;
67602;SDS011;54417;47.454;18.918;2023-03-23T18:11:21;16.73;;;5.13;;
67602;SDS011;54417;47.454;18.918;2023-03-23T18:16:46;20.00;;;8.88;;
67602;SDS011;54417;47.454;18.918;2023-03-23T18:22:10;14.98;;;6.10;;
67602;SDS011;54417;47.454;18.918;2023-03-23T18:27:34;17.95;;;5.15;;
67602;SDS011;54417;47.454;18.918;2023-03-23T18:32:59;6.85;;;4.60;;
67602;SDS011;54417;47.454;18.918;2023-03-23T18:38:23;8.43;;;5.43;;
67602;SDS011;54417;47.454;18.918;2023-03-23T18:43:48;7.88;;;5.53;;
67602;SDS011;54417;47.454;18.918;2023-03-23T18:49:13;16.42;;;5.55;;
67602;SDS011;54417;47.454;18.918;2023-03-23T18:54:37;10.05;;;5.45;;
67602;SDS011;54417;47.454;18.918;2023-03-23T19:00:03;10.48;;;5.55;;
67602;SDS011;54417;47.454;18.918;2023-03-23T19:05:28;9.55;;;6.10;;
67602;SDS011;54417;47.454;18.918;2023-03-23T19:10:55;10.50;;;6.22;;
67602;SDS011;54417;47.454;18.918;2023-03-23T19:16:21;20.65;;;6.20;;
67602;SDS011;54417;47.454;18.918;2023-03-23T19:21:46;15.73;;;5.72;;
67602;SDS011;54417;47.454;18.918;2023-03-23T19:27:10;18.20;;;6.90;;
67602;SDS011;54417;47.454;18.918;2023-03-23T19:32:34;14.20;;;9.13;;
67602;SDS011;54417;47.454;18.918;2023-03-23T19:38:00;13.93;;;6.10;;
67602;SDS011;54417;47.454;18.918;2023-03-23T19:43:24;14.10;;;6.45;;
67602;SDS011;54417;47.454;18.918;2023-03-23T19:48:48;10.20;;;5.68;;
67602;SDS011;54417;47.454;18.918;2023-03-23T19:54:14;12.75;;;6.20;;
67602;SDS011;54417;47.454;18.918;2023-03-23T19:59:37;9.70;;;5.88;;
67602;SDS011;54417;47.454;18.918;2023-03-23T20:05:02;12.10;;;6.10;;
67602;SDS011;54417;47.454;18.918;2023-03-23T20:10:28;10.80;;;7.05;;
67602;SDS011;54417;47.454;18.918;2023-03-23T20:15:55;11.05;;;6.80;;
67602;SDS011;54417;47.454;18.918;2023-03-23T20:21:22;15.10;;;6.25;;
67602;SDS011;54417;47.454;18.918;2023-03-23T20:26:47;12.25;;;6.35;;
67602;SDS011;54417;47.454;18.918;2023-03-23T20:32:11;11.15;;;6.97;;
67602;SDS011;54417;47.454;18.918;2023-03-23T20:37:35;16.42;;;7.80;;
67602;SDS011;54417;47.454;18.918;2023-03-23T20:43:01;11.57;;;6.88;;
67602;SDS011;54417;47.454;18.918;2023-03-23T20:48:26;12.95;;;7.03;;
67602;SDS011;54417;47.454;18.918;2023-03-23T20:53:51;9.93;;;6.90;;
67602;SDS011;54417;47.454;18.918;2023-03-23T20:59:17;12.32;;;8.27;;
67602;SDS011;54417;47.454;18.918;2023-03-23T21:04:41;17.88;;;8.95;;
67602;SDS011;54417;47.454;18.918;2023-03-23T21:10:06;13.48;;;8.43;;
67602;SDS011;54417;47.454;18.918;2023-03-23T21:15:32;18.33;;;9.50;;
67602;SDS011;54417;47.454;18.918;2023-03-23T21:20:56;16.60;;;8.27;;
67602;SDS011;54417;47.454;18.918;2023-03-23T21:26:22;15.85;;;8.10;;
67602;SDS011;54417;47.454;18.918;2023-03-23T21:31:48;11.77;;;7.43;;
67602;SDS011;54417;47.454;18.918;2023-03-23T21:37:28;12.68;;;7.57;;
67602;SDS011;54417;47.454;18.918;2023-03-23T21:42:52;12.73;;;7.85;;
67602;SDS011;54417;47.454;18.918;2023-03-23T21:48:17;12.20;;;8.10;;
67602;SDS011;54417;47.454;18.918;2023-03-23T21:53:43;14.70;;;8.60;;
67602;SDS011;54417;47.454;18.918;2023-03-23T21:59:08;16.67;;;10.27;;
67602;SDS011;54417;47.454;18.918;2023-03-23T22:04:33;22.75;;;9.48;;
67602;SDS011;54417;47.454;18.918;2023-03-23T22:09:57;18.85;;;8.93;;
67602;SDS011;54417;47.454;18.918;2023-03-23T22:15:20;14.68;;;8.73;;
67602;SDS011;54417;47.454;18.918;2023-03-23T22:20:50;12.23;;;7.97;;
67602;SDS011;54417;47.454;18.918;2023-03-23T22:26:14;13.02;;;7.57;;
67602;SDS011;54417;47.454;18.918;2023-03-23T22:31:39;12.68;;;8.35;;
67602;SDS011;54417;47.454;18.918;2023-03-23T22:37:04;12.82;;;8.70;;
67602;SDS011;54417;47.454;18.918;2023-03-23T22:42:29;17.45;;;10.02;;
67602;SDS011;54417;47.454;18.918;2023-03-23T22:47:53;36.65;;;14.48;;
67602;SDS011;54417;47.454;18.918;2023-03-23T22:53:22;20.92;;;10.18;;
67602;SDS011;54417;47.454;18.918;2023-03-23T22:58:46;13.25;;;8.30;;
67602;SDS011;54417;47.454;18.918;2023-03-23T23:04:10;14.80;;;9.27;;
67602;SDS011;54417;47.454;18.918;2023-03-23T23:09:35;11.38;;;7.70;;
67602;SDS011;54417;47.454;18.918;2023-03-23T23:14:59;13.77;;;8.40;;
67602;SDS011;54417;47.454;18.918;2023-03-23T23:20:24;17.52;;;8.32;;
67602;SDS011;54417;47.454;18.918;2023-03-23T23:25:50;26.90;;;10.50;;
67602;SDS011;54417;47.454;18.918;2023-03-23T23:31:15;22.48;;;11.98;;
67602;SDS011;54417;47.454;18.918;2023-03-23T23:36:43;15.30;;;9.60;;
67602;SDS011;54417;47.454;18.918;2023-03-23T23:42:09;13.98;;;9.38;;
67602;SDS011;54417;47.454;18.918;2023-03-23T23:47:33;16.38;;;9.65;;
67602;SDS011;54417;47.454;18.918;2023-03-23T23:52:57;17.55;;;10.45;;
67602;SDS011;54417;47.454;18.918;2023-03-23T23:58:23;14.95;;;9.70;;
